Time;durP1;ratioP1;P1;durP2;ratioP2;P2;SDS_P1;SDS_P2;PMS_P1;PMS_P2;Temp;Humidity;BMP_temperature;BMP_pressure;BME280_temperature;BME280_humidity;BME280_pressure;Samples;Min_cycle;Max_cycle;Signal;HPM_P1;HPM_P2
2022/08/23 00:04:10;;;;;;;3.13;1.60;;;26.10;52.50;;;;;;10061500;28;20116;-66
2022/08/23 00:09:01;;;;;;;6.05;1.52;;;26.10;52.70;;;;;;10046960;28;20492;-66
2022/08/23 00:13:51;;;;;;;4.88;2.05;;;26.20;52.80;;;;;;10064011;28;20391;-66
2022/08/23 00:18:42;;;;;;;3.47;1.40;;;26.20;52.60;;;;;;10058324;28;20112;-66
2022/08/23 00:23:33;;;;;;;4.10;1.55;;;25.80;53.30;;;;;;10056542;28;20167;-66
2022/08/23 00:28:24;;;;;;;3.05;1.58;;;25.80;53.40;;;;;;10054250;28;20531;-66
2022/08/23 00:33:14;;;;;;;8.00;1.98;;;25.70;53.60;;;;;;10052038;28;20244;-65
2022/08/23 00:38:05;;;;;;;4.55;1.80;;;25.80;53.60;;;;;;10064026;28;20029;-66
2022/08/23 00:48:15;;;;;;;4.82;1.67;;;25.70;53.90;;;;;;10058275;28;20036;-65
2022/08/23 00:53:16;;;;;;;5.88;1.73;;;25.80;53.90;;;;;;10055509;28;20395;-65
2022/08/23 00:58:07;;;;;;;2.97;1.25;;;25.80;54.30;;;;;;10055597;28;20034;-66
2022/08/23 01:02:58;;;;;;;5.38;1.60;;;25.80;54.20;;;;;;10038346;28;20048;-66
2022/08/23 01:07:53;;;;;;;2.90;1.90;;;25.80;54.40;;;;;;10061570;28;20503;-66
2022/08/23 01:12:51;;;;;;;2.90;1.15;;;25.80;54.60;;;;;;10056063;28;20150;-65
2022/08/23 01:18:01;;;;;;;2.33;1.63;;;25.80;54.80;;;;;;10057514;28;20117;-65
2022/08/23 01:22:51;;;;;;;4.00;1.65;;;25.70;55.00;;;;;;10059694;28;20470;-65
2022/08/23 01:27:43;;;;;;;4.22;1.80;;;25.60;55.10;;;;;;10053693;28;20053;-65
2022/08/23 01:32:40;;;;;;;3.38;1.80;;;25.50;55.20;;;;;;10063829;28;20091;-65
2022/08/23 01:37:31;;;;;;;4.40;2.15;;;25.60;55.60;;;;;;10056822;28;20035;-65
2022/08/23 01:42:22;;;;;;;2.63;1.90;;;25.40;55.70;;;;;;10062899;28;20022;-64
2022/08/23 01:47:12;;;;;;;6.20;2.70;;;25.30;56.10;;;;;;10057126;28;20038;-67
2022/08/23 01:52:03;;;;;;;4.60;2.17;;;25.30;56.40;;;;;;10054004;28;20029;-66
2022/08/23 01:56:55;;;;;;;3.92;2.33;;;25.20;56.70;;;;;;10062197;28;20136;-66
2022/08/23 02:01:46;;;;;;;3.72;2.75;;;25.10;56.90;;;;;;10053569;28;20101;-66
2022/08/23 02:06:37;;;;;;;7.70;4.30;;;25.10;57.40;;;;;;10058918;28;20412;-66
2022/08/23 02:11:34;;;;;;;7.35;3.67;;;25.00;57.60;;;;;;10061764;28;20693;-66
2022/08/23 02:16:32;;;;;;;9.48;4.65;;;25.00;58.10;;;;;;10063348;28;20475;-65
2022/08/23 02:21:23;;;;;;;8.10;5.05;;;24.90;58.50;;;;;;10052526;28;20045;-65
2022/08/23 02:26:14;;;;;;;9.48;4.78;;;24.70;59.10;;;;;;10065344;28;20115;-65
2022/08/23 02:31:05;;;;;;;8.20;2.95;;;24.70;60.00;;;;;;10051816;28;20419;-65
2022/08/23 02:35:56;;;;;;;3.72;2.35;;;24.10;60.90;;;;;;10045002;28;20069;-65
2022/08/23 02:40:47;;;;;;;5.53;3.10;;;23.80;62.30;;;;;;10058867;28;20029;-65
2022/08/23 02:45:38;;;;;;;6.28;2.92;;;23.70;62.00;;;;;;10051774;28;20270;-65
2022/08/23 02:50:29;;;;;;;3.47;2.28;;;23.60;62.50;;;;;;10046806;28;20022;-66
2022/08/23 02:55:20;;;;;;;3.92;2.35;;;23.60;63.30;;;;;;10051794;28;20032;-66
2022/08/23 03:00:13;;;;;;;6.00;2.80;;;23.70;63.60;;;;;;10056794;28;20026;-67
2022/08/23 03:05:06;;;;;;;4.40;2.60;;;23.80;64.10;;;;;;10047648;28;20037;-66
2022/08/23 03:09:56;;;;;;;4.78;2.88;;;23.70;64.60;;;;;;10060091;28;20182;-65
2022/08/23 03:14:49;;;;;;;3.60;2.28;;;23.70;64.80;;;;;;10062044;28;20532;-66
2022/08/23 03:19:40;;;;;;;5.57;3.20;;;23.70;65.10;;;;;;10049478;28;20550;-66
2022/08/23 03:24:31;;;;;;;4.22;2.83;;;23.70;66.00;;;;;;10054641;28;20033;-66
2022/08/23 03:29:21;;;;;;;6.68;2.97;;;23.20;66.30;;;;;;10084237;28;20057;-66
2022/08/23 03:34:13;;;;;;;7.75;3.13;;;23.10;66.70;;;;;;10074479;28;20026;-66
2022/08/23 03:39:05;;;;;;;4.00;2.58;;;23.30;66.60;;;;;;10074666;28;20467;-65
2022/08/23 03:43:56;;;;;;;5.35;2.92;;;23.50;66.70;;;;;;10066290;28;20095;-65
2022/08/23 03:48:54;;;;;;;5.47;3.17;;;23.50;66.80;;;;;;10070234;28;20125;-66
2022/08/23 03:53:46;;;;;;;3.75;2.13;;;23.20;67.20;;;;;;10065491;28;20402;-65
2022/08/23 03:58:37;;;;;;;3.90;2.63;;;23.30;67.70;;;;;;10060224;28;20254;-65
2022/08/23 04:03:27;;;;;;;4.97;3.03;;;23.30;67.70;;;;;;10066083;28;20379;-65
2022/08/23 04:08:18;;;;;;;4.28;3.10;;;23.20;68.10;;;;;;10062045;28;20116;-65
2022/08/23 04:13:10;;;;;;;3.63;2.90;;;22.90;68.60;;;;;;10060734;28;20400;-66
2022/08/23 04:18:00;;;;;;;3.10;2.80;;;23.00;68.70;;;;;;10050388;28;20120;-66
2022/08/23 04:22:53;;;;;;;5.43;3.33;;;22.90;69.00;;;;;;10049473;28;20100;-66
2022/08/23 04:27:43;;;;;;;3.95;2.63;;;22.80;69.40;;;;;;10036971;28;20567;-65
2022/08/23 04:32:34;;;;;;;6.15;2.55;;;22.80;69.70;;;;;;10038544;28;20027;-66
2022/08/23 04:37:25;;;;;;;4.93;2.47;;;22.90;69.60;;;;;;10072676;28;20041;-66
2022/08/23 04:42:18;;;;;;;5.22;3.20;;;22.90;69.70;;;;;;10051133;28;20057;-66
2022/08/23 04:47:09;;;;;;;4.05;2.65;;;22.90;69.80;;;;;;10038051;28;20041;-66
2022/08/23 04:52:00;;;;;;;4.68;3.40;;;23.00;69.80;;;;;;10056371;28;20529;-67
2022/08/23 04:56:50;;;;;;;5.60;3.25;;;22.60;70.20;;;;;;10046634;28;20713;-66
2022/08/23 05:01:41;;;;;;;5.05;2.85;;;22.80;70.30;;;;;;10061467;28;20112;-67
2022/08/23 05:06:32;;;;;;;5.93;3.85;;;23.00;69.90;;;;;;10042224;28;20028;-66
2022/08/23 05:11:23;;;;;;;7.82;3.65;;;22.90;70.40;;;;;;10055225;28;20113;-66
2022/08/23 05:16:14;;;;;;;6.50;4.20;;;22.90;70.40;;;;;;10064320;28;20502;-66
2022/08/23 05:21:05;;;;;;;4.95;4.00;;;22.90;70.40;;;;;;10056341;28;20120;-65
2022/08/23 05:25:57;;;;;;;6.30;3.80;;;23.00;70.20;;;;;;10038249;28;20045;-65
2022/08/23 05:30:58;;;;;;;5.93;4.63;;;23.00;70.40;;;;;;10054687;28;20036;-65
2022/08/23 05:35:49;;;;;;;5.47;3.90;;;23.00;70.20;;;;;;10063967;28;20103;-65
2022/08/23 05:40:39;;;;;;;6.00;3.67;;;23.10;70.10;;;;;;10065579;28;20067;-65
2022/08/23 05:45:30;;;;;;;6.78;4.15;;;23.30;70.00;;;;;;10059601;28;20100;-65
2022/08/23 05:50:21;;;;;;;6.30;3.53;;;23.20;70.00;;;;;;10053976;28;20105;-65
2022/08/23 05:55:12;;;;;;;5.22;3.42;;;23.40;69.80;;;;;;10036099;28;20045;-66
2022/08/23 06:00:14;;;;;;;6.18;3.63;;;23.20;69.90;;;;;;10065371;28;20071;-65
2022/08/23 06:05:05;;;;;;;6.07;3.10;;;23.10;69.90;;;;;;10049688;28;20488;-65
2022/08/23 06:09:56;;;;;;;5.18;2.92;;;22.70;70.60;;;;;;10046545;28;20047;-65
2022/08/23 06:14:47;;;;;;;6.13;3.30;;;22.70;71.20;;;;;;10060890;28;20063;-66
2022/08/23 06:19:37;;;;;;;4.57;2.90;;;22.90;71.20;;;;;;10053416;28;20033;-66
2022/08/23 06:24:28;;;;;;;8.55;3.10;;;22.90;71.30;;;;;;10043180;28;20121;-66
2022/08/23 06:29:19;;;;;;;6.03;3.13;;;23.00;71.70;;;;;;10062702;28;20596;-66
2022/08/23 06:34:17;;;;;;;5.53;3.28;;;23.20;71.50;;;;;;10061841;28;20816;-65
2022/08/23 06:39:10;;;;;;;5.10;3.25;;;23.20;71.90;;;;;;10059870;28;20022;-66
2022/08/23 06:44:01;;;;;;;7.13;3.63;;;23.30;72.10;;;;;;10058231;28;20024;-65
2022/08/23 06:48:52;;;;;;;5.45;2.83;;;23.40;72.10;;;;;;10053604;28;20028;-67
2022/08/23 06:53:44;;;;;;;5.93;3.70;;;23.50;72.10;;;;;;10051802;28;20055;-66
2022/08/23 06:58:34;;;;;;;6.38;3.45;;;23.50;72.30;;;;;;10068409;28;20032;-66
2022/08/23 07:03:25;;;;;;;7.38;2.95;;;23.60;72.60;;;;;;10045886;28;20033;-67
2022/08/23 07:08:16;;;;;;;5.72;3.13;;;23.70;72.80;;;;;;10050912;28;20029;-66
2022/08/23 07:13:07;;;;;;;5.43;2.75;;;23.60;73.60;;;;;;10076404;28;20036;-66
2022/08/23 07:17:57;;;;;;;6.80;3.47;;;23.80;73.20;;;;;;10064374;28;20472;-66
2022/08/23 07:22:48;;;;;;;8.85;3.10;;;23.90;73.20;;;;;;10044821;28;20033;-66
2022/08/23 07:27:38;;;;;;;5.53;4.00;;;24.20;72.90;;;;;;10069439;28;20083;-66
2022/08/23 07:32:29;;;;;;;3.83;2.60;;;24.30;72.60;;;;;;10054302;28;20404;-65
2022/08/23 07:37:20;;;;;;;5.20;3.15;;;24.50;72.40;;;;;;10048949;28;20036;-66
2022/08/23 07:42:10;;;;;;;4.18;3.17;;;24.50;72.40;;;;;;10065616;28;20099;-66
2022/08/23 07:47:01;;;;;;;3.33;2.58;;;24.70;72.10;;;;;;10059597;28;20064;-66
2022/08/23 07:51:52;;;;;;;4.53;3.10;;;24.80;71.90;;;;;;10064089;28;20024;-66
2022/08/23 07:56:42;;;;;;;5.70;2.60;;;25.00;71.70;;;;;;10058317;28;20033;-65
2022/08/23 08:01:33;;;;;;;3.45;2.47;;;25.10;71.50;;;;;;10063002;28;20035;-66
2022/08/23 08:06:38;;;;;;;6.50;2.33;;;25.20;70.90;;;;;;10064202;28;20111;-66
2022/08/23 08:11:30;;;;;;;;;;;25.30;70.40;;;;;;10056994;28;20029;-66
2022/08/23 08:16:26;;;;;;;9.30;3.30;;;25.30;70.30;;;;;;10063657;28;20324;-66
2022/08/23 08:21:17;;;;;;;5.18;2.50;;;25.30;70.20;;;;;;10055532;28;20014;-66
2022/08/23 08:26:08;;;;;;;4.63;3.10;;;25.30;69.90;;;;;;10069154;28;20216;-66
2022/08/23 08:30:59;;;;;;;4.20;2.60;;;25.40;69.80;;;;;;10047081;28;20274;-65
2022/08/23 08:35:50;;;;;;;3.83;2.40;;;25.50;69.60;;;;;;10056478;28;20113;-67
2022/08/23 08:40:42;;;;;;;3.15;2.00;;;25.60;69.20;;;;;;10063017;28;20025;-66
2022/08/23 08:45:52;;;;;;;3.20;2.38;;;25.60;68.90;;;;;;10055850;28;20033;-66
2022/08/23 08:50:48;;;;;;;2.97;2.08;;;25.80;68.70;;;;;;10055399;28;20029;-64
2022/08/23 08:55:46;;;;;;;4.95;2.63;;;26.00;68.40;;;;;;10048209;28;20242;-66
2022/08/23 09:00:37;;;;;;;4.03;2.63;;;26.20;68.10;;;;;;10060771;28;20315;-66
2022/08/23 09:05:33;;;;;;;7.53;2.65;;;26.30;67.80;;;;;;10055253;28;20036;-66
2022/08/23 09:10:46;;;;;;;4.00;2.45;;;26.40;67.60;;;;;;10047552;28;20037;-66
2022/08/23 09:15:55;;;;;;;10.75;4.00;;;26.40;67.30;;;;;;10018363;28;20080;-65
2022/08/23 09:20:48;;;;;;;5.20;2.13;;;26.70;66.80;;;;;;10054206;28;20365;-65
2022/08/23 09:25:39;;;;;;;2.88;2.50;;;26.80;66.50;;;;;;10054368;28;20030;-65
2022/08/23 09:30:59;;;;;;;3.92;2.15;;;26.90;66.20;;;;;;10054093;28;20052;-66
2022/08/23 09:36:20;;;;;;;3.67;2.13;;;26.90;65.60;;;;;;10046931;28;20053;-65
2022/08/23 09:41:21;;;;;;;3.50;2.00;;;26.90;65.60;;;;;;10045821;28;20121;-66
2022/08/23 09:46:27;;;;;;;7.25;2.30;;;27.10;65.40;;;;;;10049162;28;20047;-64
2022/08/23 09:51:38;;;;;;;3.63;2.10;;;27.20;65.00;;;;;;10045136;28;20035;-65
2022/08/23 09:56:31;;;;;;;4.18;1.92;;;27.20;64.70;;;;;;10052955;28;20151;-67
2022/08/23 10:01:25;;;;;;;2.83;1.75;;;27.40;64.40;;;;;;10052063;28;20014;-65
2022/08/23 10:06:30;;;;;;;6.78;2.55;;;27.60;63.90;;;;;;10062352;28;20055;-66
2022/08/23 10:11:28;;;;;;;3.80;2.30;;;27.70;63.50;;;;;;10052611;28;20034;-65
2022/08/23 10:16:49;;;;;;;5.28;1.83;;;27.70;63.50;;;;;;10062912;28;20235;-65
2022/08/23 10:21:48;;;;;;;3.00;2.35;;;27.80;63.10;;;;;;10050846;28;20009;-65
2022/08/23 10:27:00;;;;;;;4.68;2.25;;;27.80;63.00;;;;;;10052612;28;20076;-65
2022/08/23 10:32:17;;;;;;;3.38;2.08;;;27.70;62.70;;;;;;10034861;28;20037;-66
2022/08/23 10:37:28;;;;;;;4.20;2.50;;;27.80;62.40;;;;;;10050506;28;20249;-65
2022/08/23 10:42:50;;;;;;;3.10;1.73;;;27.90;61.90;;;;;;10058079;28;20065;-65
2022/08/23 10:48:04;;;;;;;4.60;2.17;;;28.00;61.50;;;;;;10051303;28;20132;-66
2022/08/23 10:53:22;;;;;;;4.75;2.17;;;28.20;60.00;;;;;;10051623;28;20388;-66
2022/08/23 10:58:19;;;;;;;5.68;2.67;;;28.20;60.00;;;;;;10063793;28;20044;-66
2022/08/23 11:03:39;;;;;;;6.63;3.67;;;28.50;59.90;;;;;;10052636;28;20029;-66
2022/08/23 11:08:33;;;;;;;4.95;2.30;;;28.70;59.20;;;;;;10051601;28;20135;-67
2022/08/23 11:13:28;;;;;;;3.40;2.88;;;28.70;59.00;;;;;;10066774;28;20037;-66
2022/08/23 11:18:39;;;;;;;7.57;2.50;;;28.70;58.80;;;;;;10050447;28;20052;-66
2022/08/23 11:23:53;;;;;;;3.45;1.80;;;28.70;58.20;;;;;;10051506;28;20057;-66
2022/08/23 11:28:45;;;;;;;3.17;2.00;;;28.80;57.70;;;;;;10050824;28;20053;-66
2022/08/23 11:33:51;;;;;;;4.32;2.20;;;28.90;57.60;;;;;;10061529;28;20037;-65
2022/08/23 11:38:42;;;;;;;4.10;3.20;;;28.90;57.30;;;;;;10063877;28;20108;-66
2022/08/23 11:43:37;;;;;;;4.13;2.25;;;29.10;57.10;;;;;;10055862;28;20093;-66
2022/08/23 11:48:28;;;;;;;4.28;2.25;;;29.20;56.70;;;;;;10051737;28;20033;-66
2022/08/23 11:53:48;;;;;;;4.05;2.47;;;29.40;56.30;;;;;;10051634;28;20113;-66
2022/08/23 11:59:16;;;;;;;4.18;2.15;;;29.70;55.30;;;;;;10040409;28;20136;-66
2022/08/23 12:04:13;;;;;;;5.00;2.35;;;29.90;55.20;;;;;;10063223;28;20025;-65
2022/08/23 12:09:14;;;;;;;5.00;2.58;;;29.80;55.10;;;;;;10059663;28;20341;-66
2022/08/23 12:14:30;;;;;;;2.80;2.08;;;29.90;54.40;;;;;;10049356;28;20033;-65
2022/08/23 12:19:50;;;;;;;3.85;2.58;;;30.00;53.70;;;;;;10049030;28;20105;-65
2022/08/23 12:24:51;;;;;;;3.33;2.00;;;30.60;52.80;;;;;;10070130;28;20178;-67
2022/08/23 12:30:07;;;;;;;3.08;1.85;;;31.30;52.30;;;;;;10054788;28;20046;-66
2022/08/23 12:35:17;;;;;;;2.95;1.88;;;31.60;51.90;;;;;;10057319;28;20404;-67
2022/08/23 12:40:14;;;;;;;3.72;1.90;;;31.90;51.20;;;;;;10063384;28;20568;-67
2022/08/23 12:45:19;;;;;;;3.42;2.10;;;32.00;52.10;;;;;;10054628;28;20033;-67
2022/08/23 12:50:12;;;;;;;3.45;2.25;;;32.60;51.80;;;;;;10052212;28;20014;-67
2022/08/23 12:55:17;;;;;;;3.88;2.08;;;32.70;51.80;;;;;;10057657;28;20037;-66
2022/08/23 13:00:13;;;;;;;2.60;2.00;;;32.80;51.50;;;;;;10065858;28;20072;-67
2022/08/23 13:05:22;;;;;;;4.35;2.00;;;33.30;51.30;;;;;;10043349;28;20435;-67
2022/08/23 13:10:13;;;;;;;2.80;1.75;;;33.60;50.70;;;;;;10054323;28;20033;-67
2022/08/23 13:15:05;;;;;;;2.60;2.10;;;34.10;50.60;;;;;;10065485;28;20464;-66
2022/08/23 13:20:01;;;;;;;4.20;2.60;;;34.80;49.80;;;;;;10055292;28;20025;-67
2022/08/23 13:25:04;;;;;;;5.00;2.17;;;35.50;48.70;;;;;;10049330;28;20029;-67
2022/08/23 13:29:57;;;;;;;2.53;2.22;;;36.60;47.10;;;;;;10055139;28;20586;-66
2022/08/23 13:34:52;;;;;;;3.30;2.08;;;37.40;46.30;;;;;;10055689;28;20056;-67
2022/08/23 13:39:53;;;;;;;2.92;2.03;;;38.30;44.90;;;;;;10062095;28;20190;-66
2022/08/23 13:44:43;;;;;;;3.67;2.30;;;38.70;43.50;;;;;;10060772;28;20246;-67
2022/08/23 13:49:35;;;;;;;4.13;2.17;;;39.30;42.80;;;;;;10057934;28;20673;-67
2022/08/23 13:54:28;;;;;;;3.95;2.53;;;40.10;41.90;;;;;;10052198;28;20076;-66
2022/08/23 13:59:27;;;;;;;3.60;2.47;;;40.10;41.40;;;;;;10058620;28;20028;-66
2022/08/23 14:04:17;;;;;;;4.15;2.50;;;40.00;40.90;;;;;;10052774;28;20025;-67
2022/08/23 14:09:08;;;;;;;5.05;2.92;;;40.30;40.70;;;;;;10057867;28;20045;-66
2022/08/23 14:13:59;;;;;;;5.82;3.28;;;40.60;40.20;;;;;;10062731;28;20025;-65
2022/08/23 14:18:50;;;;;;;3.47;2.60;;;41.00;39.70;;;;;;10054801;28;20056;-64
2022/08/23 14:23:40;;;;;;;3.63;2.22;;;40.90;39.30;;;;;;10053669;28;20053;-65
2022/08/23 14:28:31;;;;;;;3.30;1.92;;;41.00;38.90;;;;;;10052072;28;20436;-65
2022/08/23 14:33:22;;;;;;;3.90;2.10;;;40.50;38.40;;;;;;10050117;28;20468;-65
2022/08/23 14:38:13;;;;;;;3.72;2.17;;;40.50;38.20;;;;;;10059424;28;20755;-64
2022/08/23 14:43:04;;;;;;;5.55;2.17;;;40.00;38.20;;;;;;10058721;28;20029;-64
2022/08/23 14:47:55;;;;;;;3.00;2.50;;;40.20;37.80;;;;;;10055912;28;20049;-64
2022/08/23 14:52:47;;;;;;;4.85;2.30;;;39.90;38.00;;;;;;10052212;28;20487;-65
2022/08/23 14:57:39;;;;;;;3.67;2.30;;;40.50;37.30;;;;;;10052774;28;20056;-64
2022/08/23 15:02:35;;;;;;;2.53;2.33;;;40.50;37.10;;;;;;10052730;28;20614;-64
2022/08/23 15:07:26;;;;;;;5.40;2.38;;;41.40;36.60;;;;;;10056482;28;20033;-66
2022/08/23 15:12:18;;;;;;;2.72;2.35;;;40.80;36.50;;;;;;10062142;28;20527;-66
2022/08/23 15:17:09;;;;;;;3.90;2.53;;;41.60;36.00;;;;;;10054520;28;20533;-65
2022/08/23 15:21:59;;;;;;;2.63;2.40;;;42.00;35.50;;;;;;10053214;28;20026;-65
2022/08/23 15:26:52;;;;;;;4.20;2.15;;;42.40;34.90;;;;;;10052472;28;20049;-66
2022/08/23 15:31:43;;;;;;;3.10;2.30;;;42.00;34.80;;;;;;10048298;28;20014;-66
2022/08/23 15:36:38;;;;;;;4.78;2.47;;;42.20;34.60;;;;;;10061852;28;20052;-65
2022/08/23 15:41:29;;;;;;;3.25;2.22;;;41.80;34.20;;;;;;10064965;28;20434;-65
2022/08/23 15:46:22;;;;;;;2.72;2.50;;;43.30;34.00;;;;;;10062669;28;20033;-65
2022/08/23 15:51:16;;;;;;;5.07;2.60;;;44.00;33.80;;;;;;10058415;28;20068;-65
2022/08/23 15:56:14;;;;;;;4.28;2.33;;;44.00;33.80;;;;;;10058147;28;20083;-65
2022/08/23 16:01:05;;;;;;;3.28;2.03;;;45.30;33.50;;;;;;10056622;28;20030;-65
2022/08/23 16:05:56;;;;;;;3.40;2.22;;;45.60;33.20;;;;;;10071477;28;20021;-65
2022/08/23 16:10:46;;;;;;;2.80;2.47;;;46.10;32.80;;;;;;10056794;28;20018;-65
2022/08/23 16:15:38;;;;;;;3.30;2.58;;;46.40;32.60;;;;;;10061302;28;20395;-66
2022/08/23 16:20:29;;;;;;;4.53;2.50;;;45.40;32.40;;;;;;10056745;28;20137;-66
2022/08/23 16:25:20;;;;;;;3.65;2.70;;;44.80;32.60;;;;;;10056660;28;20037;-66
2022/08/23 16:30:12;;;;;;;2.97;2.38;;;44.20;32.50;;;;;;10056914;28;20076;-66
2022/08/23 16:35:03;;;;;;;4.82;2.92;;;44.50;32.30;;;;;;10057651;28;20089;-66
2022/08/23 16:39:54;;;;;;;3.47;2.83;;;45.20;31.90;;;;;;10063693;28;20116;-65
2022/08/23 16:44:45;;;;;;;5.32;2.50;;;44.80;31.80;;;;;;10061984;28;20232;-65
2022/08/23 16:49:36;;;;;;;4.13;2.60;;;44.60;31.70;;;;;;10041785;28;20045;-65
2022/08/23 16:54:30;;;;;;;6.43;3.03;;;45.00;31.40;;;;;;10052344;28;20022;-65
2022/08/23 16:59:20;;;;;;;2.90;2.38;;;44.20;31.80;;;;;;10068369;28;20029;-64
2022/08/23 17:04:11;;;;;;;3.05;2.00;;;43.50;31.90;;;;;;10055245;28;20468;-65
2022/08/23 17:09:02;;;;;;;;;;;42.90;32.20;;;;;;10068953;28;20029;-66
2022/08/23 17:13:52;;;;;;;3.10;2.43;;;41.80;32.60;;;;;;10063094;28;20472;-66
2022/08/23 17:18:43;;;;;;;2.92;2.40;;;42.40;32.60;;;;;;10057304;28;20052;-66
2022/08/23 17:23:34;;;;;;;5.85;2.72;;;42.90;32.20;;;;;;10053464;28;20040;-66
2022/08/23 17:28:25;;;;;;;6.82;3.05;;;40.20;33.00;;;;;;10054483;28;20132;-65
2022/08/23 17:33:15;;;;;;;7.93;2.83;;;37.70;34.60;;;;;;10053918;28;20124;-66
2022/08/23 17:38:06;;;;;;;5.22;3.22;;;36.20;35.50;;;;;;10054689;28;20553;-65
2022/08/23 17:43:01;;;;;;;4.35;2.63;;;35.30;35.90;;;;;;10054529;28;20034;-66
2022/08/23 17:47:52;;;;;;;4.97;3.75;;;34.80;36.20;;;;;;10054552;28;20037;-65
2022/08/23 17:52:44;;;;;;;6.45;3.30;;;34.30;36.40;;;;;;10046138;28;20041;-65
2022/08/23 17:57:35;;;;;;;7.15;2.92;;;34.00;36.80;;;;;;10045986;28;20036;-66
2022/08/23 18:02:26;;;;;;;4.53;2.95;;;33.80;37.20;;;;;;10052617;28;20040;-65
2022/08/23 18:07:17;;;;;;;5.15;2.78;;;33.50;37.60;;;;;;10057167;28;20403;-66
2022/08/23 18:12:07;;;;;;;4.20;2.35;;;33.30;38.00;;;;;;10055454;28;20080;-66
2022/08/23 18:16:58;;;;;;;3.25;2.63;;;33.20;38.30;;;;;;10060959;28;20517;-65
2022/08/23 18:21:49;;;;;;;2.83;2.20;;;33.10;38.50;;;;;;10050970;28;20056;-66
2022/08/23 18:31:49;;;;;;;3.38;2.38;;;32.80;38.90;;;;;;10054734;28;20183;-65
2022/08/23 18:36:42;;;;;;;6.20;2.70;;;32.70;39.20;;;;;;10056596;28;20166;-66
2022/08/23 18:41:33;;;;;;;4.10;2.83;;;32.50;39.30;;;;;;10058247;28;20132;-65
2022/08/23 18:46:25;;;;;;;3.35;2.78;;;32.50;39.60;;;;;;10055541;28;20095;-65
2022/08/23 18:51:15;;;;;;;4.60;3.05;;;32.30;39.90;;;;;;10056025;28;20491;-65
2022/08/23 18:56:06;;;;;;;4.35;2.90;;;32.20;40.10;;;;;;10045363;28;20033;-66
2022/08/23 19:00:57;;;;;;;5.78;3.25;;;32.20;40.40;;;;;;10049992;28;20022;-66
2022/08/23 19:05:48;;;;;;;8.15;4.70;;;32.10;40.60;;;;;;10057262;28;20033;-66
2022/08/23 19:10:40;;;;;;;4.70;2.92;;;32.00;40.80;;;;;;10061243;28;20033;-66
2022/08/23 19:15:33;;;;;;;6.65;3.60;;;32.00;40.90;;;;;;10067515;28;20028;-66
2022/08/23 19:20:24;;;;;;;5.13;3.60;;;31.90;41.10;;;;;;10059653;28;20045;-67
2022/08/23 19:25:15;;;;;;;5.50;3.72;;;31.70;41.40;;;;;;10066281;28;20196;-66
2022/08/23 19:30:09;;;;;;;5.38;3.45;;;31.60;41.80;;;;;;10057865;28;20061;-66
2022/08/23 19:35:00;;;;;;;5.03;3.45;;;31.50;42.10;;;;;;10063904;28;20021;-66
2022/08/23 19:39:51;;;;;;;7.70;4.35;;;31.40;42.40;;;;;;10068490;28;20034;-66
2022/08/23 19:44:42;;;;;;;6.05;4.20;;;31.30;42.80;;;;;;10054289;28;20017;-66
2022/08/23 19:49:34;;;;;;;5.90;3.88;;;31.20;43.00;;;;;;10058144;28;20033;-66
2022/08/23 19:54:26;;;;;;;4.93;3.33;;;31.10;43.30;;;;;;10058183;28;20426;-66
2022/08/23 19:59:20;;;;;;;4.63;3.00;;;30.90;43.70;;;;;;10062832;28;20024;-66
2022/08/23 20:04:11;;;;;;;;;;;31.00;43.70;;;;;;10058663;28;20289;-66
2022/08/23 20:09:03;;;;;;;4.88;2.67;;;30.90;43.60;;;;;;10059556;28;20138;-66
2022/08/23 20:13:55;;;;;;;4.55;3.22;;;30.90;43.60;;;;;;10063838;28;20029;-66
2022/08/23 20:18:46;;;;;;;5.60;3.35;;;30.90;43.80;;;;;;10058120;28;20025;-66
2022/08/23 20:28:48;;;;;;;6.70;3.15;;;30.60;44.30;;;;;;10054766;28;20542;-66
2022/08/23 20:33:39;;;;;;;4.55;2.97;;;30.40;44.50;;;;;;10066520;28;20530;-66
2022/08/23 20:38:30;;;;;;;4.85;2.85;;;30.10;44.80;;;;;;10070015;28;20031;-65
2022/08/23 20:43:20;;;;;;;5.43;2.97;;;30.10;45.10;;;;;;10061076;28;20070;-66
2022/08/23 20:48:11;;;;;;;4.22;3.00;;;30.00;45.50;;;;;;10066928;28;20468;-65
2022/08/23 20:53:02;;;;;;;7.50;3.47;;;29.90;45.70;;;;;;10061872;28;20350;-65
2022/08/23 20:57:52;;;;;;;5.10;3.47;;;29.90;46.00;;;;;;10057803;28;20517;-66
2022/08/23 21:02:43;;;;;;;5.22;3.80;;;29.80;46.20;;;;;;10082965;28;20028;-65
2022/08/23 21:07:33;;;;;;;5.50;3.83;;;29.80;46.40;;;;;;10059243;28;20042;-65
2022/08/23 21:12:24;;;;;;;5.82;3.42;;;29.80;46.70;;;;;;10061283;28;20155;-65
2022/08/23 21:17:15;;;;;;;6.35;3.90;;;29.70;47.00;;;;;;10061051;28;20026;-66
2022/08/23 21:22:06;;;;;;;4.55;2.92;;;29.60;47.30;;;;;;10056126;28;20037;-66
2022/08/23 21:26:56;;;;;;;10.10;3.88;;;29.40;47.60;;;;;;10037152;28;20037;-66
2022/08/23 21:31:47;;;;;;;3.60;2.75;;;29.30;47.90;;;;;;10064749;28;20013;-67
2022/08/23 21:36:37;;;;;;;5.18;2.80;;;29.10;47.90;;;;;;10061441;28;20025;-66
2022/08/23 21:41:36;;;;;;;6.40;3.00;;;29.10;48.10;;;;;;10058835;28;20545;-66
2022/08/23 21:46:26;;;;;;;5.60;2.63;;;29.10;48.30;;;;;;10056304;28;20538;-66
2022/08/23 21:51:17;;;;;;;4.80;3.20;;;29.00;48.30;;;;;;10055427;28;20026;-68
2022/08/23 21:56:08;;;;;;;4.90;3.28;;;28.90;48.30;;;;;;10053608;28;20037;-67
2022/08/23 22:00:59;;;;;;;5.30;3.10;;;28.90;48.70;;;;;;10066262;28;20021;-66
2022/08/23 22:05:50;;;;;;;4.18;3.13;;;28.80;48.80;;;;;;10031312;28;20049;-66
2022/08/23 22:10:42;;;;;;;4.65;2.95;;;28.70;49.00;;;;;;10055370;28;20041;-66
2022/08/23 22:15:34;;;;;;;5.40;2.97;;;28.60;49.20;;;;;;10064474;28;20057;-67
2022/08/23 22:20:25;;;;;;;3.50;2.97;;;28.60;49.20;;;;;;10028219;28;20026;-66
2022/08/23 22:25:16;;;;;;;4.38;2.45;;;28.50;49.30;;;;;;10062210;28;20139;-66
2022/08/23 22:30:08;;;;;;;4.38;2.83;;;28.30;49.50;;;;;;10056352;28;20335;-66
2022/08/23 22:34:58;;;;;;;6.60;3.33;;;28.20;49.70;;;;;;10049314;28;20507;-66
2022/08/23 22:39:49;;;;;;;5.32;2.65;;;28.20;49.90;;;;;;10059373;28;20084;-65
2022/08/23 22:44:40;;;;;;;4.45;3.20;;;28.20;50.00;;;;;;10055929;28;20116;-66
2022/08/23 22:49:30;;;;;;;3.30;3.00;;;28.30;50.10;;;;;;10057226;28;20045;-65
2022/08/23 22:54:22;;;;;;;5.00;2.90;;;28.10;50.30;;;;;;10035009;28;20044;-66
2022/08/23 22:59:14;;;;;;;5.18;3.47;;;28.00;50.60;;;;;;10057594;28;20016;-66
2022/08/23 23:04:07;;;;;;;6.85;4.30;;;27.90;51.10;;;;;;10053001;28;20037;-65
2022/08/23 23:08:58;;;;;;;6.05;3.10;;;27.80;51.40;;;;;;10056806;28;20029;-67
2022/08/23 23:13:49;;;;;;;5.47;3.38;;;27.70;51.80;;;;;;10055607;28;20040;-67
2022/08/23 23:18:41;;;;;;;3.95;2.97;;;27.50;52.30;;;;;;10054449;28;20021;-66
2022/08/23 23:23:35;;;;;;;5.40;3.40;;;27.50;52.60;;;;;;10033972;28;20022;-66
2022/08/23 23:28:26;;;;;;;4.00;3.00;;;27.20;53.10;;;;;;10043417;28;20060;-65
2022/08/23 23:33:18;;;;;;;3.90;3.38;;;27.10;53.40;;;;;;10052208;28;20025;-66
2022/08/23 23:38:09;;;;;;;6.80;3.00;;;26.80;53.90;;;;;;10058323;28;20021;-66
2022/08/23 23:43:00;;;;;;;5.10;3.00;;;26.60;54.40;;;;;;10049983;28;20029;-66
2022/08/23 23:47:51;;;;;;;3.35;2.88;;;26.50;54.80;;;;;;10051575;28;20037;-66
2022/08/23 23:52:41;;;;;;;3.70;3.00;;;26.20;55.30;;;;;;10054374;28;20495;-66
2022/08/23 23:57:32;;;;;;;5.50;2.85;;;25.80;55.70;;;;;;10063999;28;20491;-66
